sensor_id;sensor_type;location;lat;lon;timestamp;P1;durP1;ratioP1;P2;durP2;ratioP2
62030;SDS011;62035;52.094;5.112;2024-01-10T00:00:36;7.13;;;2.47;;
62030;SDS011;62035;52.094;5.112;2024-01-10T00:03:04;6.27;;;2.23;;
62030;SDS011;62035;52.094;5.112;2024-01-10T00:05:31;4.60;;;2.10;;
62030;SDS011;62035;52.094;5.112;2024-01-10T00:07:58;5.80;;;2.50;;
62030;SDS011;62035;52.094;5.112;2024-01-10T00:10:27;3.20;;;1.80;;
62030;SDS011;62035;52.094;5.112;2024-01-10T00:12:54;3.60;;;2.10;;
62030;SDS011;62035;52.094;5.112;2024-01-10T00:15:21;3.40;;;2.10;;
62030;SDS011;62035;52.094;5.112;2024-01-10T00:17:49;3.80;;;2.47;;
62030;SDS011;62035;52.094;5.112;2024-01-10T00:20:16;5.70;;;2.33;;
62030;SDS011;62035;52.094;5.112;2024-01-10T00:22:43;4.97;;;2.17;;
62030;SDS011;62035;52.094;5.112;2024-01-10T00:25:10;3.10;;;2.07;;
62030;SDS011;62035;52.094;5.112;2024-01-10T00:27:39;5.17;;;2.90;;
62030;SDS011;62035;52.094;5.112;2024-01-10T00:30:07;4.53;;;2.17;;
62030;SDS011;62035;52.094;5.112;2024-01-10T00:32:35;6.10;;;2.33;;
62030;SDS011;62035;52.094;5.112;2024-01-10T00:35:02;5.27;;;2.63;;
62030;SDS011;62035;52.094;5.112;2024-01-10T00:37:30;2.93;;;1.80;;
62030;SDS011;62035;52.094;5.112;2024-01-10T00:39:57;3.03;;;2.07;;
62030;SDS011;62035;52.094;5.112;2024-01-10T00:42:24;5.53;;;2.40;;
62030;SDS011;62035;52.094;5.112;2024-01-10T00:44:53;5.13;;;2.00;;
62030;SDS011;62035;52.094;5.112;2024-01-10T00:47:20;5.07;;;2.47;;
62030;SDS011;62035;52.094;5.112;2024-01-10T00:49:47;3.77;;;2.27;;
62030;SDS011;62035;52.094;5.112;2024-01-10T00:52:14;3.33;;;2.07;;
62030;SDS011;62035;52.094;5.112;2024-01-10T00:54:42;6.87;;;2.50;;
62030;SDS011;62035;52.094;5.112;2024-01-10T00:57:10;3.53;;;2.10;;
62030;SDS011;62035;52.094;5.112;2024-01-10T00:59:37;3.37;;;2.20;;
62030;SDS011;62035;52.094;5.112;2024-01-10T01:02:06;2.83;;;1.90;;
62030;SDS011;62035;52.094;5.112;2024-01-10T01:04:33;4.17;;;2.07;;
62030;SDS011;62035;52.094;5.112;2024-01-10T01:07:00;6.57;;;2.30;;
62030;SDS011;62035;52.094;5.112;2024-01-10T01:09:27;4.43;;;2.40;;
62030;SDS011;62035;52.094;5.112;2024-01-10T01:11:55;4.70;;;2.50;;
62030;SDS011;62035;52.094;5.112;2024-01-10T01:14:22;4.80;;;2.40;;
62030;SDS011;62035;52.094;5.112;2024-01-10T01:16:49;4.23;;;2.60;;
62030;SDS011;62035;52.094;5.112;2024-01-10T01:19:17;6.50;;;3.07;;
62030;SDS011;62035;52.094;5.112;2024-01-10T01:21:45;3.90;;;2.33;;
62030;SDS011;62035;52.094;5.112;2024-01-10T01:24:12;4.13;;;2.10;;
62030;SDS011;62035;52.094;5.112;2024-01-10T01:26:40;6.37;;;3.13;;
62030;SDS011;62035;52.094;5.112;2024-01-10T01:29:07;3.37;;;2.17;;
62030;SDS011;62035;52.094;5.112;2024-01-10T01:31:34;4.10;;;2.50;;
62030;SDS011;62035;52.094;5.112;2024-01-10T01:34:03;4.47;;;2.40;;
62030;SDS011;62035;52.094;5.112;2024-01-10T01:36:31;7.97;;;2.90;;
62030;SDS011;62035;52.094;5.112;2024-01-10T01:38:59;4.77;;;2.60;;
62030;SDS011;62035;52.094;5.112;2024-01-10T01:41:27;6.77;;;2.63;;
62030;SDS011;62035;52.094;5.112;2024-01-10T01:43:54;4.83;;;2.27;;
62030;SDS011;62035;52.094;5.112;2024-01-10T01:46:21;7.50;;;2.70;;
62030;SDS011;62035;52.094;5.112;2024-01-10T01:48:49;4.10;;;2.03;;
62030;SDS011;62035;52.094;5.112;2024-01-10T01:51:18;5.50;;;2.70;;
62030;SDS011;62035;52.094;5.112;2024-01-10T01:53:49;5.33;;;2.80;;
62030;SDS011;62035;52.094;5.112;2024-01-10T01:56:17;6.13;;;2.90;;
62030;SDS011;62035;52.094;5.112;2024-01-10T01:58:44;6.90;;;3.07;;
62030;SDS011;62035;52.094;5.112;2024-01-10T02:01:12;4.30;;;2.50;;
62030;SDS011;62035;52.094;5.112;2024-01-10T02:03:40;4.77;;;2.40;;
62030;SDS011;62035;52.094;5.112;2024-01-10T02:06:07;4.80;;;2.33;;
62030;SDS011;62035;52.094;5.112;2024-01-10T02:08:35;3.30;;;2.07;;
62030;SDS011;62035;52.094;5.112;2024-01-10T02:11:04;5.63;;;2.60;;
62030;SDS011;62035;52.094;5.112;2024-01-10T02:13:31;4.90;;;2.50;;
62030;SDS011;62035;52.094;5.112;2024-01-10T02:15:59;6.33;;;2.70;;
62030;SDS011;62035;52.094;5.112;2024-01-10T02:18:27;5.13;;;2.50;;
62030;SDS011;62035;52.094;5.112;2024-01-10T02:20:54;4.73;;;2.53;;
62030;SDS011;62035;52.094;5.112;2024-01-10T02:23:21;4.53;;;2.77;;
62030;SDS011;62035;52.094;5.112;2024-01-10T02:25:50;6.30;;;2.60;;
62030;SDS011;62035;52.094;5.112;2024-01-10T02:28:17;7.00;;;3.30;;
62030;SDS011;62035;52.094;5.112;2024-01-10T02:30:44;7.13;;;2.57;;
62030;SDS011;62035;52.094;5.112;2024-01-10T02:33:12;4.90;;;2.93;;
62030;SDS011;62035;52.094;5.112;2024-01-10T02:35:40;7.20;;;2.70;;
62030;SDS011;62035;52.094;5.112;2024-01-10T02:38:07;4.90;;;2.80;;
62030;SDS011;62035;52.094;5.112;2024-01-10T02:40:34;5.17;;;2.90;;
62030;SDS011;62035;52.094;5.112;2024-01-10T02:43:03;5.30;;;2.33;;
62030;SDS011;62035;52.094;5.112;2024-01-10T02:45:32;7.60;;;3.00;;
62030;SDS011;62035;52.094;5.112;2024-01-10T02:48:01;4.73;;;2.83;;
62030;SDS011;62035;52.094;5.112;2024-01-10T02:50:28;4.60;;;2.57;;
62030;SDS011;62035;52.094;5.112;2024-01-10T02:52:55;5.37;;;2.60;;
62030;SDS011;62035;52.094;5.112;2024-01-10T02:55:23;3.67;;;2.27;;
62030;SDS011;62035;52.094;5.112;2024-01-10T02:57:50;5.87;;;3.20;;
62030;SDS011;62035;52.094;5.112;2024-01-10T03:00:18;5.90;;;3.33;;
62030;SDS011;62035;52.094;5.112;2024-01-10T03:02:46;4.60;;;2.90;;
62030;SDS011;62035;52.094;5.112;2024-01-10T03:05:13;4.87;;;2.60;;
62030;SDS011;62035;52.094;5.112;2024-01-10T03:07:40;6.30;;;2.93;;
62030;SDS011;62035;52.094;5.112;2024-01-10T03:10:08;4.50;;;2.60;;
62030;SDS011;62035;52.094;5.112;2024-01-10T03:12:35;4.90;;;2.83;;
62030;SDS011;62035;52.094;5.112;2024-01-10T03:15:03;3.73;;;2.60;;
62030;SDS011;62035;52.094;5.112;2024-01-10T03:17:33;9.23;;;3.30;;
62030;SDS011;62035;52.094;5.112;2024-01-10T03:20:01;5.17;;;2.33;;
62030;SDS011;62035;52.094;5.112;2024-01-10T03:22:29;5.17;;;2.97;;
62030;SDS011;62035;52.094;5.112;2024-01-10T03:24:57;6.63;;;2.50;;
62030;SDS011;62035;52.094;5.112;2024-01-10T03:27:24;5.03;;;2.73;;
62030;SDS011;62035;52.094;5.112;2024-01-10T03:29:52;8.10;;;2.60;;
62030;SDS011;62035;52.094;5.112;2024-01-10T03:32:19;5.00;;;2.70;;
62030;SDS011;62035;52.094;5.112;2024-01-10T03:34:47;4.70;;;2.87;;
62030;SDS011;62035;52.094;5.112;2024-01-10T03:37:17;6.87;;;3.00;;
62030;SDS011;62035;52.094;5.112;2024-01-10T03:39:44;6.63;;;3.13;;
62030;SDS011;62035;52.094;5.112;2024-01-10T03:42:11;5.70;;;2.57;;
62030;SDS011;62035;52.094;5.112;2024-01-10T03:44:41;6.40;;;3.03;;
62030;SDS011;62035;52.094;5.112;2024-01-10T03:47:08;7.43;;;3.20;;
62030;SDS011;62035;52.094;5.112;2024-01-10T03:49:35;4.77;;;2.73;;
62030;SDS011;62035;52.094;5.112;2024-01-10T03:52:04;5.07;;;3.03;;
62030;SDS011;62035;52.094;5.112;2024-01-10T03:54:32;5.07;;;2.90;;
62030;SDS011;62035;52.094;5.112;2024-01-10T03:57:00;6.13;;;2.80;;
62030;SDS011;62035;52.094;5.112;2024-01-10T03:59:27;6.00;;;2.80;;
62030;SDS011;62035;52.094;5.112;2024-01-10T04:01:55;5.40;;;2.57;;
62030;SDS011;62035;52.094;5.112;2024-01-10T04:04:22;6.57;;;3.53;;
62030;SDS011;62035;52.094;5.112;2024-01-10T04:06:49;6.67;;;3.00;;
62030;SDS011;62035;52.094;5.112;2024-01-10T04:09:18;6.57;;;3.60;;
62030;SDS011;62035;52.094;5.112;2024-01-10T04:11:45;5.07;;;3.03;;
62030;SDS011;62035;52.094;5.112;2024-01-10T04:14:12;4.67;;;2.80;;
62030;SDS011;62035;52.094;5.112;2024-01-10T04:16:39;6.07;;;2.60;;
62030;SDS011;62035;52.094;5.112;2024-01-10T04:19:06;7.17;;;2.80;;
62030;SDS011;62035;52.094;5.112;2024-01-10T04:21:33;5.40;;;2.80;;
62030;SDS011;62035;52.094;5.112;2024-01-10T04:24:01;5.13;;;2.73;;
62030;SDS011;62035;52.094;5.112;2024-01-10T04:26:29;5.53;;;2.70;;
62030;SDS011;62035;52.094;5.112;2024-01-10T04:28:57;4.90;;;3.07;;
62030;SDS011;62035;52.094;5.112;2024-01-10T04:31:25;6.97;;;3.20;;
62030;SDS011;62035;52.094;5.112;2024-01-10T04:33:52;5.33;;;2.70;;
62030;SDS011;62035;52.094;5.112;2024-01-10T04:36:19;5.10;;;2.97;;
62030;SDS011;62035;52.094;5.112;2024-01-10T04:38:46;8.40;;;3.00;;
62030;SDS011;62035;52.094;5.112;2024-01-10T04:41:13;6.17;;;3.10;;
62030;SDS011;62035;52.094;5.112;2024-01-10T04:43:42;6.13;;;2.83;;
62030;SDS011;62035;52.094;5.112;2024-01-10T04:46:09;6.10;;;3.13;;
62030;SDS011;62035;52.094;5.112;2024-01-10T04:48:37;8.93;;;2.80;;
62030;SDS011;62035;52.094;5.112;2024-01-10T04:51:04;6.47;;;2.83;;
62030;SDS011;62035;52.094;5.112;2024-01-10T04:53:31;10.33;;;3.13;;
62030;SDS011;62035;52.094;5.112;2024-01-10T04:55:59;5.83;;;2.70;;
62030;SDS011;62035;52.094;5.112;2024-01-10T04:58:26;4.93;;;2.80;;
62030;SDS011;62035;52.094;5.112;2024-01-10T05:00:56;6.63;;;3.30;;
62030;SDS011;62035;52.094;5.112;2024-01-10T05:03:23;5.70;;;2.70;;
62030;SDS011;62035;52.094;5.112;2024-01-10T05:05:50;4.13;;;2.43;;
62030;SDS011;62035;52.094;5.112;2024-01-10T05:08:18;7.07;;;2.90;;
62030;SDS011;62035;52.094;5.112;2024-01-10T05:10:46;4.87;;;2.87;;
62030;SDS011;62035;52.094;5.112;2024-01-10T05:13:14;7.43;;;2.80;;
62030;SDS011;62035;52.094;5.112;2024-01-10T05:15:41;5.37;;;3.03;;
62030;SDS011;62035;52.094;5.112;2024-01-10T05:18:09;7.87;;;3.03;;
62030;SDS011;62035;52.094;5.112;2024-01-10T05:20:37;5.10;;;3.03;;
62030;SDS011;62035;52.094;5.112;2024-01-10T05:23:04;4.10;;;2.60;;
62030;SDS011;62035;52.094;5.112;2024-01-10T05:25:31;6.23;;;3.10;;
62030;SDS011;62035;52.094;5.112;2024-01-10T05:27:58;7.93;;;3.20;;
62030;SDS011;62035;52.094;5.112;2024-01-10T05:30:25;6.47;;;2.93;;
62030;SDS011;62035;52.094;5.112;2024-01-10T05:32:53;4.93;;;3.00;;
62030;SDS011;62035;52.094;5.112;2024-01-10T05:35:21;5.50;;;2.33;;
62030;SDS011;62035;52.094;5.112;2024-01-10T05:37:48;6.57;;;2.77;;
62030;SDS011;62035;52.094;5.112;2024-01-10T05:40:16;8.33;;;3.83;;
62030;SDS011;62035;52.094;5.112;2024-01-10T05:42:44;8.37;;;3.40;;
62030;SDS011;62035;52.094;5.112;2024-01-10T05:45:11;6.00;;;3.20;;
62030;SDS011;62035;52.094;5.112;2024-01-10T05:47:38;5.90;;;3.10;;
62030;SDS011;62035;52.094;5.112;2024-01-10T05:50:06;5.77;;;2.97;;
62030;SDS011;62035;52.094;5.112;2024-01-10T05:52:35;6.77;;;2.60;;
62030;SDS011;62035;52.094;5.112;2024-01-10T05:55:02;5.77;;;3.33;;
62030;SDS011;62035;52.094;5.112;2024-01-10T05:57:30;4.87;;;2.93;;
62030;SDS011;62035;52.094;5.112;2024-01-10T05:59:58;3.97;;;2.40;;
62030;SDS011;62035;52.094;5.112;2024-01-10T06:02:25;6.23;;;3.53;;
62030;SDS011;62035;52.094;5.112;2024-01-10T06:04:52;3.77;;;2.40;;
62030;SDS011;62035;52.094;5.112;2024-01-10T06:07:20;5.03;;;3.40;;
62030;SDS011;62035;52.094;5.112;2024-01-10T06:09:48;4.47;;;2.40;;
62030;SDS011;62035;52.094;5.112;2024-01-10T06:12:16;7.60;;;3.30;;
62030;SDS011;62035;52.094;5.112;2024-01-10T06:14:43;7.90;;;3.20;;
62030;SDS011;62035;52.094;5.112;2024-01-10T06:17:10;7.00;;;3.70;;
62030;SDS011;62035;52.094;5.112;2024-01-10T06:19:37;6.67;;;3.80;;
62030;SDS011;62035;52.094;5.112;2024-01-10T06:22:05;6.40;;;3.40;;
62030;SDS011;62035;52.094;5.112;2024-01-10T06:24:32;6.30;;;3.17;;
62030;SDS011;62035;52.094;5.112;2024-01-10T06:27:00;6.57;;;2.90;;
62030;SDS011;62035;52.094;5.112;2024-01-10T06:29:28;6.83;;;3.63;;
62030;SDS011;62035;52.094;5.112;2024-01-10T06:31:55;6.47;;;3.20;;
62030;SDS011;62035;52.094;5.112;2024-01-10T06:34:23;7.77;;;3.30;;
62030;SDS011;62035;52.094;5.112;2024-01-10T06:36:50;5.20;;;2.90;;
62030;SDS011;62035;52.094;5.112;2024-01-10T06:39:17;6.40;;;3.50;;
62030;SDS011;62035;52.094;5.112;2024-01-10T06:41:45;5.80;;;3.10;;
62030;SDS011;62035;52.094;5.112;2024-01-10T06:44:14;9.23;;;3.70;;
62030;SDS011;62035;52.094;5.112;2024-01-10T06:46:43;7.30;;;3.17;;
62030;SDS011;62035;52.094;5.112;2024-01-10T06:49:10;8.07;;;3.37;;
62030;SDS011;62035;52.094;5.112;2024-01-10T06:51:37;7.57;;;3.50;;
62030;SDS011;62035;52.094;5.112;2024-01-10T06:54:05;5.23;;;2.97;;
62030;SDS011;62035;52.094;5.112;2024-01-10T06:56:32;7.57;;;3.30;;
62030;SDS011;62035;52.094;5.112;2024-01-10T06:59:00;5.30;;;3.23;;
62030;SDS011;62035;52.094;5.112;2024-01-10T07:01:30;10.43;;;4.30;;
62030;SDS011;62035;52.094;5.112;2024-01-10T07:03:57;5.40;;;3.27;;
62030;SDS011;62035;52.094;5.112;2024-01-10T07:06:24;6.70;;;3.47;;
62030;SDS011;62035;52.094;5.112;2024-01-10T07:08:51;5.93;;;2.70;;
62030;SDS011;62035;52.094;5.112;2024-01-10T07:11:19;5.13;;;3.13;;
62030;SDS011;62035;52.094;5.112;2024-01-10T07:13:46;5.70;;;2.93;;
62030;SDS011;62035;52.094;5.112;2024-01-10T07:16:13;5.43;;;3.23;;
62030;SDS011;62035;52.094;5.112;2024-01-10T07:18:43;5.53;;;3.27;;
62030;SDS011;62035;52.094;5.112;2024-01-10T07:21:10;6.07;;;3.30;;
62030;SDS011;62035;52.094;5.112;2024-01-10T07:23:38;5.80;;;3.50;;
62030;SDS011;62035;52.094;5.112;2024-01-10T07:26:06;8.07;;;3.63;;
62030;SDS011;62035;52.094;5.112;2024-01-10T07:28:33;6.57;;;3.10;;
62030;SDS011;62035;52.094;5.112;2024-01-10T07:31:01;5.27;;;2.83;;
62030;SDS011;62035;52.094;5.112;2024-01-10T07:33:28;5.77;;;3.27;;
62030;SDS011;62035;52.094;5.112;2024-01-10T07:35:58;7.43;;;4.00;;
62030;SDS011;62035;52.094;5.112;2024-01-10T07:38:25;6.50;;;3.20;;
62030;SDS011;62035;52.094;5.112;2024-01-10T07:40:52;7.13;;;2.83;;
62030;SDS011;62035;52.094;5.112;2024-01-10T07:43:19;7.67;;;3.63;;
62030;SDS011;62035;52.094;5.112;2024-01-10T07:45:46;7.73;;;3.50;;
62030;SDS011;62035;52.094;5.112;2024-01-10T07:48:14;5.53;;;3.37;;
62030;SDS011;62035;52.094;5.112;2024-01-10T07:50:41;6.77;;;3.23;;
62030;SDS011;62035;52.094;5.112;2024-01-10T07:53:10;5.23;;;3.07;;
62030;SDS011;62035;52.094;5.112;2024-01-10T07:55:37;6.23;;;2.70;;
62030;SDS011;62035;52.094;5.112;2024-01-10T07:58:05;11.00;;;3.40;;
62030;SDS011;62035;52.094;5.112;2024-01-10T08:00:32;4.90;;;2.93;;
62030;SDS011;62035;52.094;5.112;2024-01-10T08:03:00;7.93;;;4.23;;
62030;SDS011;62035;52.094;5.112;2024-01-10T08:05:28;4.57;;;2.93;;
62030;SDS011;62035;52.094;5.112;2024-01-10T08:07:55;8.23;;;3.50;;
62030;SDS011;62035;52.094;5.112;2024-01-10T08:10:25;5.67;;;3.03;;
62030;SDS011;62035;52.094;5.112;2024-01-10T08:12:54;4.83;;;2.97;;
62030;SDS011;62035;52.094;5.112;2024-01-10T08:15:22;9.43;;;3.50;;
62030;SDS011;62035;52.094;5.112;2024-01-10T08:17:50;15.70;;;4.10;;
62030;SDS011;62035;52.094;5.112;2024-01-10T08:20:18;10.83;;;3.87;;
62030;SDS011;62035;52.094;5.112;2024-01-10T08:22:46;6.93;;;3.33;;
62030;SDS011;62035;52.094;5.112;2024-01-10T08:25:14;7.60;;;3.90;;
62030;SDS011;62035;52.094;5.112;2024-01-10T08:27:45;8.57;;;3.27;;
62030;SDS011;62035;52.094;5.112;2024-01-10T08:30:13;5.23;;;2.93;;
62030;SDS011;62035;52.094;5.112;2024-01-10T08:32:40;6.00;;;3.23;;
62030;SDS011;62035;52.094;5.112;2024-01-10T08:35:07;6.30;;;3.13;;
62030;SDS011;62035;52.094;5.112;2024-01-10T08:37:35;7.43;;;3.67;;
62030;SDS011;62035;52.094;5.112;2024-01-10T08:40:03;6.13;;;2.90;;
62030;SDS011;62035;52.094;5.112;2024-01-10T08:42:35;6.17;;;3.07;;
62030;SDS011;62035;52.094;5.112;2024-01-10T08:45:05;8.43;;;3.77;;
62030;SDS011;62035;52.094;5.112;2024-01-10T08:47:35;11.70;;;3.92;;
62030;SDS011;62035;52.094;5.112;2024-01-10T08:50:02;8.37;;;3.43;;
62030;SDS011;62035;52.094;5.112;2024-01-10T08:52:34;8.35;;;3.90;;
62030;SDS011;62035;52.094;5.112;2024-01-10T08:55:03;6.70;;;3.70;;
62030;SDS011;62035;52.094;5.112;2024-01-10T08:57:31;6.07;;;3.40;;
62030;SDS011;62035;52.094;5.112;2024-01-10T08:59:59;6.13;;;3.27;;
62030;SDS011;62035;52.094;5.112;2024-01-10T09:02:27;5.50;;;3.13;;
62030;SDS011;62035;52.094;5.112;2024-01-10T09:04:54;9.90;;;3.47;;
62030;SDS011;62035;52.094;5.112;2024-01-10T09:07:22;5.73;;;3.10;;
62030;SDS011;62035;52.094;5.112;2024-01-10T09:09:49;7.80;;;3.83;;
62030;SDS011;62035;52.094;5.112;2024-01-10T09:12:16;10.10;;;3.97;;
62030;SDS011;62035;52.094;5.112;2024-01-10T09:14:43;10.03;;;4.10;;
62030;SDS011;62035;52.094;5.112;2024-01-10T09:17:11;8.00;;;3.30;;
62030;SDS011;62035;52.094;5.112;2024-01-10T09:19:40;7.50;;;3.20;;
62030;SDS011;62035;52.094;5.112;2024-01-10T09:22:07;9.10;;;3.50;;
62030;SDS011;62035;52.094;5.112;2024-01-10T09:24:34;11.23;;;4.33;;
62030;SDS011;62035;52.094;5.112;2024-01-10T09:27:02;5.40;;;3.07;;
62030;SDS011;62035;52.094;5.112;2024-01-10T09:29:29;7.50;;;3.07;;
62030;SDS011;62035;52.094;5.112;2024-01-10T09:31:57;5.03;;;2.80;;
62030;SDS011;62035;52.094;5.112;2024-01-10T09:34:24;19.40;;;4.03;;
62030;SDS011;62035;52.094;5.112;2024-01-10T09:36:53;12.60;;;3.73;;
62030;SDS011;62035;52.094;5.112;2024-01-10T09:39:20;6.60;;;3.03;;
62030;SDS011;62035;52.094;5.112;2024-01-10T09:41:48;7.87;;;3.80;;
62030;SDS011;62035;52.094;5.112;2024-01-10T09:44:16;7.10;;;3.77;;
62030;SDS011;62035;52.094;5.112;2024-01-10T09:46:46;8.30;;;4.23;;
62030;SDS011;62035;52.094;5.112;2024-01-10T09:49:17;11.40;;;3.27;;
62030;SDS011;62035;52.094;5.112;2024-01-10T09:51:48;10.20;;;4.18;;
62030;SDS011;62035;52.094;5.112;2024-01-10T09:54:17;11.03;;;3.67;;
62030;SDS011;62035;52.094;5.112;2024-01-10T09:56:45;6.77;;;3.67;;
62030;SDS011;62035;52.094;5.112;2024-01-10T09:59:13;6.38;;;3.75;;
62030;SDS011;62035;52.094;5.112;2024-01-10T10:01:42;10.30;;;4.03;;
62030;SDS011;62035;52.094;5.112;2024-01-10T10:04:11;6.15;;;3.25;;
62030;SDS011;62035;52.094;5.112;2024-01-10T10:06:39;5.83;;;3.13;;
62030;SDS011;62035;52.094;5.112;2024-01-10T10:09:06;8.63;;;3.67;;
62030;SDS011;62035;52.094;5.112;2024-01-10T10:11:35;9.38;;;3.60;;
62030;SDS011;62035;52.094;5.112;2024-01-10T10:14:13;5.80;;;3.05;;
62030;SDS011;62035;52.094;5.112;2024-01-10T10:16:41;5.80;;;3.50;;
62030;SDS011;62035;52.094;5.112;2024-01-10T10:19:08;8.50;;;3.47;;
62030;SDS011;62035;52.094;5.112;2024-01-10T10:21:37;7.72;;;3.47;;
62030;SDS011;62035;52.094;5.112;2024-01-10T10:24:04;12.67;;;3.70;;
62030;SDS011;62035;52.094;5.112;2024-01-10T10:26:33;6.13;;;3.35;;
62030;SDS011;62035;52.094;5.112;2024-01-10T10:29:02;7.70;;;3.42;;
62030;SDS011;62035;52.094;5.112;2024-01-10T10:31:29;7.43;;;3.20;;
62030;SDS011;62035;52.094;5.112;2024-01-10T10:33:59;9.63;;;4.85;;
62030;SDS011;62035;52.094;5.112;2024-01-10T10:36:28;9.15;;;3.60;;
62030;SDS011;62035;52.094;5.112;2024-01-10T10:38:59;5.80;;;3.38;;
62030;SDS011;62035;52.094;5.112;2024-01-10T10:41:29;5.28;;;3.00;;
62030;SDS011;62035;52.094;5.112;2024-01-10T10:43:58;10.88;;;4.22;;
62030;SDS011;62035;52.094;5.112;2024-01-10T10:46:28;7.63;;;3.47;;
62030;SDS011;62035;52.094;5.112;2024-01-10T10:48:58;5.97;;;3.37;;
62030;SDS011;62035;52.094;5.112;2024-01-10T10:51:32;6.60;;;3.77;;
62030;SDS011;62035;52.094;5.112;2024-01-10T10:54:00;7.93;;;3.58;;
62030;SDS011;62035;52.094;5.112;2024-01-10T10:56:30;7.10;;;3.40;;
62030;SDS011;62035;52.094;5.112;2024-01-10T10:59:00;7.40;;;3.95;;
62030;SDS011;62035;52.094;5.112;2024-01-10T11:01:29;6.32;;;2.92;;
62030;SDS011;62035;52.094;5.112;2024-01-10T11:03:59;11.80;;;3.90;;
62030;SDS011;62035;52.094;5.112;2024-01-10T11:06:27;11.85;;;4.82;;
62030;SDS011;62035;52.094;5.112;2024-01-10T11:08:56;11.45;;;3.50;;
62030;SDS011;62035;52.094;5.112;2024-01-10T11:11:31;8.10;;;3.97;;
62030;SDS011;62035;52.094;5.112;2024-01-10T11:14:11;5.97;;;3.53;;
62030;SDS011;62035;52.094;5.112;2024-01-10T11:20:01;7.28;;;3.90;;
62030;SDS011;62035;52.094;5.112;2024-01-10T11:22:45;8.93;;;3.90;;
62030;SDS011;62035;52.094;5.112;2024-01-10T11:25:23;6.85;;;3.45;;
62030;SDS011;62035;52.094;5.112;2024-01-10T11:27:55;9.15;;;3.80;;
62030;SDS011;62035;52.094;5.112;2024-01-10T11:30:30;11.40;;;3.65;;
62030;SDS011;62035;52.094;5.112;2024-01-10T11:33:02;9.90;;;4.10;;
62030;SDS011;62035;52.094;5.112;2024-01-10T11:35:50;12.60;;;3.17;;
62030;SDS011;62035;52.094;5.112;2024-01-10T11:38:32;11.77;;;4.05;;
62030;SDS011;62035;52.094;5.112;2024-01-10T11:40:59;7.30;;;3.55;;
62030;SDS011;62035;52.094;5.112;2024-01-10T11:43:27;9.32;;;3.63;;
62030;SDS011;62035;52.094;5.112;2024-01-10T11:45:55;14.07;;;3.70;;
62030;SDS011;62035;52.094;5.112;2024-01-10T11:48:27;9.48;;;4.55;;
62030;SDS011;62035;52.094;5.112;2024-01-10T11:50:54;5.22;;;3.03;;
62030;SDS011;62035;52.094;5.112;2024-01-10T11:53:39;7.55;;;3.53;;
62030;SDS011;62035;52.094;5.112;2024-01-10T11:56:12;5.60;;;3.33;;
62030;SDS011;62035;52.094;5.112;2024-01-10T11:58:52;14.55;;;3.40;;
62030;SDS011;62035;52.094;5.112;2024-01-10T12:01:27;7.55;;;4.00;;
62030;SDS011;62035;52.094;5.112;2024-01-10T12:03:56;7.32;;;3.85;;
62030;SDS011;62035;52.094;5.112;2024-01-10T12:06:25;7.53;;;3.40;;
62030;SDS011;62035;52.094;5.112;2024-01-10T12:08:53;12.88;;;4.13;;
62030;SDS011;62035;52.094;5.112;2024-01-10T12:11:20;9.07;;;4.20;;
62030;SDS011;62035;52.094;5.112;2024-01-10T12:13:47;7.40;;;3.83;;
62030;SDS011;62035;52.094;5.112;2024-01-10T12:16:14;8.43;;;4.07;;
62030;SDS011;62035;52.094;5.112;2024-01-10T12:18:43;10.30;;;3.90;;
62030;SDS011;62035;52.094;5.112;2024-01-10T12:21:12;6.80;;;3.30;;
62030;SDS011;62035;52.094;5.112;2024-01-10T12:23:39;8.07;;;3.97;;
62030;SDS011;62035;52.094;5.112;2024-01-10T12:26:08;6.47;;;3.78;;
62030;SDS011;62035;52.094;5.112;2024-01-10T12:28:38;9.88;;;4.80;;
62030;SDS011;62035;52.094;5.112;2024-01-10T12:31:06;9.27;;;4.45;;
62030;SDS011;62035;52.094;5.112;2024-01-10T12:33:34;10.48;;;4.30;;
62030;SDS011;62035;52.094;5.112;2024-01-10T12:36:03;11.32;;;4.03;;
62030;SDS011;62035;52.094;5.112;2024-01-10T12:38:34;10.30;;;3.78;;
62030;SDS011;62035;52.094;5.112;2024-01-10T12:41:02;10.48;;;4.05;;
62030;SDS011;62035;52.094;5.112;2024-01-10T12:43:30;7.10;;;3.58;;
62030;SDS011;62035;52.094;5.112;2024-01-10T12:46:05;12.95;;;4.38;;
62030;SDS011;62035;52.094;5.112;2024-01-10T12:48:33;7.32;;;3.88;;
62030;SDS011;62035;52.094;5.112;2024-01-10T12:51:03;8.38;;;4.05;;
62030;SDS011;62035;52.094;5.112;2024-01-10T12:53:34;11.60;;;4.18;;
62030;SDS011;62035;52.094;5.112;2024-01-10T12:56:02;8.55;;;4.35;;
62030;SDS011;62035;52.094;5.112;2024-01-10T12:58:30;7.90;;;3.78;;
62030;SDS011;62035;52.094;5.112;2024-01-10T13:00:58;8.00;;;3.75;;
62030;SDS011;62035;52.094;5.112;2024-01-10T13:03:25;7.13;;;3.63;;
62030;SDS011;62035;52.094;5.112;2024-01-10T13:05:53;9.57;;;3.97;;
62030;SDS011;62035;52.094;5.112;2024-01-10T13:08:20;8.32;;;3.95;;
62030;SDS011;62035;52.094;5.112;2024-01-10T13:10:48;9.48;;;4.25;;
62030;SDS011;62035;52.094;5.112;2024-01-10T13:13:16;10.07;;;3.97;;
62030;SDS011;62035;52.094;5.112;2024-01-10T13:15:44;8.10;;;4.30;;
62030;SDS011;62035;52.094;5.112;2024-01-10T13:18:12;8.60;;;4.22;;
62030;SDS011;62035;52.094;5.112;2024-01-10T13:20:40;11.88;;;4.30;;
62030;SDS011;62035;52.094;5.112;2024-01-10T13:23:07;8.73;;;4.18;;
62030;SDS011;62035;52.094;5.112;2024-01-10T13:25:34;9.52;;;4.03;;
62030;SDS011;62035;52.094;5.112;2024-01-10T13:28:04;9.07;;;3.90;;
62030;SDS011;62035;52.094;5.112;2024-01-10T13:30:31;8.93;;;4.40;;
62030;SDS011;62035;52.094;5.112;2024-01-10T13:32:59;8.27;;;4.10;;
62030;SDS011;62035;52.094;5.112;2024-01-10T13:35:26;8.27;;;4.28;;
62030;SDS011;62035;52.094;5.112;2024-01-10T13:37:53;7.38;;;3.78;;
62030;SDS011;62035;52.094;5.112;2024-01-10T13:40:20;8.10;;;4.25;;
62030;SDS011;62035;52.094;5.112;2024-01-10T13:42:49;7.22;;;4.40;;
62030;SDS011;62035;52.094;5.112;2024-01-10T13:45:18;7.78;;;4.18;;
62030;SDS011;62035;52.094;5.112;2024-01-10T13:47:46;9.88;;;4.55;;
62030;SDS011;62035;52.094;5.112;2024-01-10T13:50:14;8.02;;;4.45;;
62030;SDS011;62035;52.094;5.112;2024-01-10T13:52:42;11.77;;;4.22;;
62030;SDS011;62035;52.094;5.112;2024-01-10T13:55:10;8.45;;;4.15;;
62030;SDS011;62035;52.094;5.112;2024-01-10T13:57:37;7.72;;;4.07;;
62030;SDS011;62035;52.094;5.112;2024-01-10T14:00:05;8.55;;;4.35;;
62030;SDS011;62035;52.094;5.112;2024-01-10T14:02:35;7.25;;;4.22;;
62030;SDS011;62035;52.094;5.112;2024-01-10T14:05:02;8.80;;;4.30;;
62030;SDS011;62035;52.094;5.112;2024-01-10T14:07:31;7.82;;;3.70;;
62030;SDS011;62035;52.094;5.112;2024-01-10T14:09:59;7.88;;;4.47;;
62030;SDS011;62035;52.094;5.112;2024-01-10T14:12:27;10.32;;;4.07;;
62030;SDS011;62035;52.094;5.112;2024-01-10T14:14:55;8.05;;;4.20;;
62030;SDS011;62035;52.094;5.112;2024-01-10T14:17:22;10.05;;;4.20;;
62030;SDS011;62035;52.094;5.112;2024-01-10T14:19:52;7.72;;;3.65;;
62030;SDS011;62035;52.094;5.112;2024-01-10T14:22:19;8.95;;;4.20;;
62030;SDS011;62035;52.094;5.112;2024-01-10T14:24:46;8.02;;;4.43;;
62030;SDS011;62035;52.094;5.112;2024-01-10T14:27:13;9.90;;;4.25;;
62030;SDS011;62035;52.094;5.112;2024-01-10T14:29:41;9.23;;;4.35;;
62030;SDS011;62035;52.094;5.112;2024-01-10T14:32:08;14.63;;;4.70;;
62030;SDS011;62035;52.094;5.112;2024-01-10T14:34:38;11.13;;;4.95;;
62030;SDS011;62035;52.094;5.112;2024-01-10T14:37:07;12.38;;;4.63;;
62030;SDS011;62035;52.094;5.112;2024-01-10T14:39:35;10.98;;;3.97;;
62030;SDS011;62035;52.094;5.112;2024-01-10T14:42:05;7.85;;;4.05;;
62030;SDS011;62035;52.094;5.112;2024-01-10T14:44:34;7.32;;;3.75;;
62030;SDS011;62035;52.094;5.112;2024-01-10T14:47:01;8.13;;;4.47;;
62030;SDS011;62035;52.094;5.112;2024-01-10T14:49:29;12.05;;;4.28;;
62030;SDS011;62035;52.094;5.112;2024-01-10T14:51:58;9.95;;;4.40;;
62030;SDS011;62035;52.094;5.112;2024-01-10T14:54:26;9.05;;;4.10;;